createdAt,value
2022-10-11T00:00:56.627Z,14.43
2022-10-11T00:02:59.907Z,14.53
2022-10-11T00:05:02.617Z,14.39
2022-10-11T00:07:06.649Z,14.55
2022-10-11T00:09:10.011Z,14.51
2022-10-11T00:11:12.696Z,14.44
2022-10-11T00:13:15.312Z,13.97
2022-10-11T00:15:20.758Z,14.33
2022-10-11T00:17:23.762Z,13.67
2022-10-11T00:19:26.551Z,13.38
2022-10-11T00:21:29.270Z,13.28
2022-10-11T00:23:33.649Z,13.95
2022-10-11T00:25:36.277Z,13.98
2022-10-11T00:27:39.226Z,13.94
2022-10-11T00:29:41.895Z,14.05
2022-10-11T00:31:44.586Z,14.06
2022-10-11T00:33:47.817Z,14.15
2022-10-11T00:35:50.479Z,12.64
2022-10-11T00:37:53.200Z,14.18
2022-10-11T00:39:57.296Z,14.21
2022-10-11T00:42:00.076Z,14.17
2022-10-11T00:44:14.704Z,14.03
2022-10-11T00:46:31.074Z,14.07
2022-10-11T00:48:40.580Z,14.06
2022-10-11T00:50:43.532Z,14.08
2022-10-11T00:52:54.225Z,14.23
2022-10-11T00:55:00.856Z,12.27
2022-10-11T00:57:06.845Z,13.85
2022-10-11T00:59:14.934Z,13.99
2022-10-11T01:01:17.761Z,14.17
2022-10-11T01:03:22.362Z,14.16
2022-10-11T01:05:29.748Z,14.23
2022-10-11T01:07:35.040Z,14.23
2022-10-11T01:09:37.812Z,14.33
2022-10-11T01:11:44.131Z,14.05
2022-10-11T01:13:59.826Z,14.12
2022-10-11T01:16:12.417Z,14.12
2022-10-11T01:18:21.478Z,14.03
2022-10-11T01:20:35.893Z,14.16
2022-10-11T01:23:04.077Z,14.26
2022-10-11T01:25:19.293Z,14.41
2022-10-11T01:27:41.800Z,13.21
2022-10-11T01:29:53.563Z,14.20
2022-10-11T01:32:03.492Z,14.09
2022-10-11T01:34:12.702Z,14.24
2022-10-11T01:36:27.659Z,14.31
2022-10-11T01:38:36.926Z,14.22
2022-10-11T01:40:46.486Z,13.47
2022-10-11T01:42:50.262Z,14.20
2022-10-11T01:44:53.405Z,13.70
2022-10-11T01:46:57.488Z,13.61
2022-10-11T01:49:02.732Z,14.20
2022-10-11T01:51:05.475Z,14.13
2022-10-11T01:53:46.934Z,13.95
2022-10-11T01:55:55.294Z,13.98
2022-10-11T01:58:11.384Z,14.15
2022-10-11T02:00:17.202Z,13.98
2022-10-11T02:02:34.643Z,14.32
2022-10-11T02:04:44.762Z,13.10
2022-10-11T02:06:52.591Z,14.43
2022-10-11T02:09:05.741Z,14.09
2022-10-11T02:11:17.851Z,13.59
2022-10-11T02:13:27.345Z,14.52
2022-10-11T02:15:33.781Z,14.53
2022-10-11T02:17:43.808Z,14.33
2022-10-11T02:19:51.063Z,14.32
2022-10-11T02:21:58.988Z,11.35
2022-10-11T02:24:06.873Z,13.48
2022-10-11T02:26:12.150Z,14.04
2022-10-11T02:28:18.390Z,13.94
2022-10-11T02:30:21.236Z,13.96
2022-10-11T02:32:26.432Z,13.42
2022-10-11T02:34:34.502Z,12.95
2022-10-11T02:36:43.515Z,13.09
2022-10-11T02:38:51.466Z,13.53
2022-10-11T02:41:00.110Z,14.04
2022-10-11T02:43:06.353Z,14.02
2022-10-11T02:45:14.537Z,13.94
2022-10-11T02:47:17.877Z,13.89
2022-10-11T02:49:21.778Z,14.04
2022-10-11T02:51:27.832Z,14.12
2022-10-11T02:53:31.022Z,13.10
2022-10-11T02:55:33.792Z,14.25
2022-10-11T02:57:36.501Z,13.54
2022-10-11T02:59:39.261Z,12.82
2022-10-11T03:01:42.045Z,13.83
2022-10-11T03:03:44.791Z,12.38
2022-10-11T03:05:47.462Z,14.17
2022-10-11T03:07:51.486Z,14.21
2022-10-11T03:09:54.236Z,13.42
2022-10-11T03:11:56.939Z,13.43
2022-10-11T03:13:59.712Z,13.98
2022-10-11T03:16:03.772Z,14.03
2022-10-11T03:18:06.748Z,13.90
2022-10-11T03:20:10.278Z,13.30
2022-10-11T03:22:13.010Z,12.45
2022-10-11T03:24:17.078Z,13.74
2022-10-11T03:26:19.855Z,13.81
2022-10-11T03:28:23.234Z,12.84
2022-10-11T03:30:26.339Z,14.13
2022-10-11T03:32:29.400Z,14.19
2022-10-11T03:34:32.102Z,14.22
2022-10-11T03:36:35.017Z,14.20
2022-10-11T03:38:37.766Z,14.30
2022-10-11T03:40:42.118Z,14.32
2022-10-11T03:42:44.778Z,14.23
2022-10-11T03:44:49.460Z,13.99
2022-10-11T03:46:52.085Z,13.95
2022-10-11T03:48:55.329Z,13.94
2022-10-11T03:50:58.027Z,13.75
2022-10-11T03:53:00.911Z,13.78
2022-10-11T03:55:04.417Z,13.78
2022-10-11T03:57:08.476Z,13.67
2022-10-11T03:59:11.537Z,13.80
2022-10-11T04:01:14.167Z,13.87
2022-10-11T04:03:17.102Z,14.05
2022-10-11T04:05:20.053Z,14.07
2022-10-11T04:07:22.728Z,14.02
2022-10-11T04:09:25.479Z,13.97
2022-10-11T04:11:28.331Z,13.56
2022-10-11T04:13:32.366Z,12.24
2022-10-11T04:15:35.038Z,13.66
2022-10-11T04:17:37.703Z,13.11
2022-10-11T04:19:40.389Z,13.60
2022-10-11T04:21:43.225Z,13.41
2022-10-11T04:23:45.926Z,13.50
2022-10-11T04:25:48.697Z,13.62
2022-10-11T04:27:51.427Z,13.71
2022-10-11T04:29:55.835Z,13.96
2022-10-11T04:31:58.507Z,13.86
2022-10-11T04:34:01.173Z,14.03
2022-10-11T04:36:04.606Z,13.99
2022-10-11T04:38:07.620Z,14.11
2022-10-11T04:40:11.951Z,14.19
2022-10-11T04:42:14.737Z,14.23
2022-10-11T04:44:17.510Z,13.87
2022-10-11T04:46:21.802Z,14.27
2022-10-11T04:48:24.406Z,14.24
2022-10-11T04:50:27.211Z,13.99
2022-10-11T04:52:33.314Z,13.98
2022-10-11T04:54:35.970Z,13.84
2022-10-11T04:56:38.626Z,13.86
2022-10-11T04:58:42.211Z,13.87
2022-10-11T05:00:44.813Z,13.71
2022-10-11T05:02:48.891Z,13.35
2022-10-11T05:04:51.776Z,13.54
2022-10-11T05:06:54.476Z,13.36
2022-10-11T05:08:57.125Z,12.92
2022-10-11T05:11:01.488Z,13.88
2022-10-11T05:13:04.221Z,13.90
2022-10-11T05:15:08.498Z,13.46
2022-10-11T05:17:11.088Z,10.76
2022-10-11T05:19:15.532Z,13.41
2022-10-11T05:21:20.060Z,13.36
2022-10-11T05:23:22.702Z,13.60
2022-10-11T05:25:25.340Z,12.95
2022-10-11T05:27:27.958Z,13.67
2022-10-11T05:29:30.811Z,13.71
2022-10-11T05:31:33.585Z,13.82
2022-10-11T05:33:36.691Z,13.81
2022-10-11T05:35:40.669Z,13.77
2022-10-11T05:37:43.284Z,12.85
2022-10-11T05:39:45.898Z,13.58
2022-10-11T05:41:48.583Z,13.80
2022-10-11T05:43:51.214Z,13.96
2022-10-11T05:45:53.886Z,14.08
2022-10-11T05:47:56.548Z,13.97
2022-10-11T05:49:59.207Z,14.09
2022-10-11T05:52:03.126Z,14.09
2022-10-11T05:54:05.761Z,13.93
2022-10-11T05:56:19.371Z,14.00
2022-10-11T05:58:22.371Z,14.12
2022-10-11T06:00:25.498Z,14.19
2022-10-11T06:02:28.129Z,13.94
2022-10-11T06:04:30.910Z,13.95
2022-10-11T06:06:33.566Z,13.88
2022-10-11T06:08:37.735Z,13.75
2022-10-11T06:10:41.017Z,13.92
2022-10-11T06:12:43.776Z,14.00
2022-10-11T06:14:46.831Z,13.73
2022-10-11T06:16:49.809Z,13.90
2022-10-11T06:18:54.116Z,13.83
2022-10-11T06:20:59.179Z,13.95
2022-10-11T06:23:02.037Z,13.94
2022-10-11T06:25:07.046Z,13.96
2022-10-11T06:27:09.860Z,14.03
2022-10-11T06:29:12.639Z,13.81
2022-10-11T06:31:15.360Z,13.80
2022-10-11T06:33:18.079Z,13.93
2022-10-11T06:35:20.839Z,14.04
2022-10-11T06:37:23.551Z,13.94
2022-10-11T06:39:26.330Z,13.72
2022-10-11T06:41:31.511Z,12.84
2022-10-11T06:43:34.251Z,13.77
2022-10-11T06:45:37.019Z,13.71
2022-10-11T06:47:39.711Z,13.58
2022-10-11T06:49:42.477Z,13.67
2022-10-11T06:51:45.372Z,13.67
2022-10-11T06:53:50.330Z,13.77
2022-10-11T06:55:53.163Z,13.85
2022-10-11T06:57:58.417Z,12.91
2022-10-11T07:00:01.159Z,14.07
2022-10-11T07:02:04.110Z,13.82
2022-10-11T07:04:07.203Z,13.48
2022-10-11T07:06:12.100Z,12.35
2022-10-11T07:08:15.005Z,13.26
2022-10-11T07:10:17.880Z,13.43
2022-10-11T07:12:20.882Z,13.64
2022-10-11T07:14:25.236Z,12.67
2022-10-11T07:16:52.419Z,13.43
2022-10-11T07:19:00.140Z,13.43
2022-10-11T07:21:04.492Z,13.40
2022-10-11T07:23:07.227Z,13.19
2022-10-11T07:25:10.241Z,13.45
2022-10-11T07:27:12.976Z,12.76
2022-10-11T07:29:15.679Z,13.50
2022-10-11T07:31:23.467Z,13.44
2022-10-11T07:33:26.268Z,13.37
2022-10-11T07:35:29.027Z,13.67
2022-10-11T07:37:31.727Z,13.81
2022-10-11T07:39:34.511Z,13.79
2022-10-11T07:41:43.158Z,13.72
2022-10-11T07:43:49.678Z,13.58
2022-10-11T07:45:55.558Z,13.73
2022-10-11T07:47:59.665Z,13.39
2022-10-11T07:50:02.375Z,13.86
2022-10-11T07:52:05.219Z,13.89
2022-10-11T07:54:07.970Z,13.66
2022-10-11T07:56:12.844Z,14.01
2022-10-11T07:58:15.605Z,13.91
2022-10-11T08:00:18.731Z,13.76
2022-10-11T08:02:21.511Z,14.07
2022-10-11T08:04:26.759Z,12.26
2022-10-11T08:06:32.548Z,13.96
2022-10-11T08:08:35.975Z,13.59
2022-10-11T08:10:39.358Z,13.69
2022-10-11T08:12:42.229Z,13.77
2022-10-11T08:14:44.922Z,13.99
2022-10-11T08:16:48.189Z,14.10
2022-10-11T08:18:51.262Z,13.71
2022-10-11T08:20:55.369Z,14.25
2022-10-11T08:22:58.139Z,14.26
2022-10-11T08:25:00.857Z,14.29
2022-10-11T08:27:03.529Z,14.16
2022-10-11T08:29:06.595Z,14.27
2022-10-11T08:31:13.622Z,13.86
2022-10-11T08:33:16.904Z,14.23
2022-10-11T08:35:19.784Z,14.22
2022-10-11T08:37:23.969Z,14.20
2022-10-11T08:39:26.793Z,14.21
2022-10-11T08:41:35.751Z,14.29
2022-10-11T08:43:47.627Z,14.02
2022-10-11T08:45:54.614Z,13.98
2022-10-11T08:48:05.951Z,14.35
2022-10-11T08:50:15.777Z,14.53
2022-10-11T08:52:25.572Z,14.85
2022-10-11T08:54:36.583Z,14.68
2022-10-11T08:56:41.870Z,14.85
2022-10-11T08:58:50.513Z,14.59
2022-10-11T09:00:55.213Z,13.64
2022-10-11T09:03:09.503Z,14.33
2022-10-11T09:05:17.629Z,14.46
2022-10-11T09:07:32.134Z,14.95
2022-10-11T09:09:55.695Z,15.05
2022-10-11T09:12:11.258Z,15.26
2022-10-11T09:14:35.274Z,15.07
2022-10-11T09:16:48.730Z,15.15
2022-10-11T09:19:11.041Z,15.26
2022-10-11T09:21:22.268Z,15.23
2022-10-11T09:23:40.842Z,15.06
2022-10-11T09:25:50.823Z,14.69
2022-10-11T09:28:04.665Z,14.71
2022-10-11T09:30:14.469Z,14.64
2022-10-11T09:32:20.935Z,14.79
2022-10-11T09:34:26.836Z,14.57
2022-10-11T09:36:35.547Z,14.83
2022-10-11T09:38:46.111Z,14.44
2022-10-11T09:41:02.866Z,14.79
2022-10-11T09:43:05.817Z,15.05
2022-10-11T09:45:21.615Z,15.22
2022-10-11T09:47:27.205Z,14.80
2022-10-11T09:49:33.299Z,14.90
2022-10-11T09:51:36.126Z,14.79
2022-10-11T09:54:00.702Z,14.95
2022-10-11T09:56:05.860Z,15.06
2022-10-11T09:58:28.344Z,14.81
2022-10-11T10:00:33.837Z,15.08
2022-10-11T10:02:44.260Z,15.15
2022-10-11T10:05:02.746Z,14.99
2022-10-11T10:07:16.697Z,15.13
2022-10-11T10:09:36.586Z,15.39
2022-10-11T10:11:39.331Z,15.13
2022-10-11T10:13:45.943Z,15.13
2022-10-11T10:15:53.528Z,15.04
2022-10-11T10:17:56.454Z,14.71
2022-10-11T10:20:00.706Z,14.67
2022-10-11T10:22:03.422Z,14.16
2022-10-11T10:24:09.329Z,14.68
2022-10-11T10:26:16.753Z,14.63
2022-10-11T10:28:23.793Z,14.95
2022-10-11T10:30:27.134Z,14.93
2022-10-11T10:32:35.976Z,15.15
2022-10-11T10:34:42.413Z,15.10
2022-10-11T10:36:48.363Z,15.09
2022-10-11T10:38:57.415Z,15.03
2022-10-11T10:41:03.852Z,15.26
2022-10-11T10:43:15.471Z,15.46
2022-10-11T10:45:21.747Z,15.62
2022-10-11T10:47:45.912Z,15.73
2022-10-11T10:49:58.096Z,14.53
2022-10-11T10:52:21.702Z,15.81
2022-10-11T10:54:38.972Z,15.96
2022-10-11T10:56:46.410Z,15.79
2022-10-11T10:59:06.661Z,16.04
2022-10-11T11:01:16.256Z,14.71
2022-10-11T11:03:25.140Z,15.79
2022-10-11T11:05:46.180Z,15.13
2022-10-11T11:07:54.298Z,15.65
2022-10-11T11:10:03.434Z,15.65
2022-10-11T11:12:19.858Z,15.16
2022-10-11T11:14:34.703Z,15.76
2022-10-11T11:16:46.133Z,15.77
2022-10-11T11:18:59.375Z,15.84
2022-10-11T11:21:18.116Z,15.98
2022-10-11T11:23:29.203Z,15.49
2022-10-11T11:25:44.857Z,16.33
2022-10-11T11:27:57.018Z,15.97
2022-10-11T11:30:05.899Z,16.09
2022-10-11T11:32:16.394Z,15.08
2022-10-11T11:34:23.833Z,15.77
2022-10-11T11:36:33.892Z,15.31
2022-10-11T11:38:45.194Z,16.46
2022-10-11T11:40:52.869Z,16.13
2022-10-11T11:42:58.396Z,16.33
2022-10-11T11:45:06.597Z,16.57
2022-10-11T11:47:17.695Z,16.46
2022-10-11T11:49:26.410Z,16.84
2022-10-11T11:51:33.387Z,16.59
2022-10-11T11:53:49.692Z,17.00
2022-10-11T11:55:58.626Z,16.78
2022-10-11T11:58:13.967Z,15.35
2022-10-11T12:00:21.084Z,15.72
2022-10-11T12:02:44.961Z,17.02
2022-10-11T12:04:48.834Z,16.20
2022-10-11T12:07:18.307Z,16.55
2022-10-11T12:09:23.409Z,16.89
2022-10-11T12:11:35.281Z,13.39
2022-10-11T12:13:40.981Z,16.90
2022-10-11T12:16:00.021Z,16.87
2022-10-11T12:18:13.728Z,16.75
2022-10-11T12:20:24.045Z,16.99
2022-10-11T12:22:54.755Z,16.73
2022-10-11T12:24:58.938Z,14.87
2022-10-11T12:27:37.837Z,16.52
2022-10-11T12:29:52.159Z,16.54
2022-10-11T12:32:35.434Z,16.80
2022-10-11T12:36:44.716Z,15.66
2022-10-11T12:38:47.459Z,16.93
2022-10-11T12:40:54.388Z,16.67
2022-10-11T12:43:12.261Z,16.16
2022-10-11T12:45:35.123Z,16.07
2022-10-11T12:47:44.799Z,16.21
2022-10-11T12:50:00.444Z,16.24
2022-10-11T12:52:05.571Z,16.41
2022-10-11T12:54:49.055Z,16.25
2022-10-11T12:57:07.316Z,16.25
2022-10-11T12:59:19.565Z,16.39
2022-10-11T13:01:24.413Z,16.00
2022-10-11T13:03:32.724Z,16.02
2022-10-11T13:05:45.259Z,15.74
2022-10-11T13:07:49.506Z,15.83
2022-10-11T13:09:55.241Z,15.83
2022-10-11T13:12:04.107Z,16.11
2022-10-11T13:14:10.808Z,16.31
2022-10-11T13:16:17.876Z,16.19
2022-10-11T13:18:24.005Z,16.26
2022-10-11T13:20:31.511Z,16.14
2022-10-11T13:22:36.578Z,16.57
2022-10-11T13:24:41.115Z,16.03
2022-10-11T13:26:45.186Z,16.38
2022-10-11T13:28:48.617Z,16.32
2022-10-11T13:30:55.294Z,15.93
2022-10-11T13:32:59.640Z,16.15
2022-10-11T13:35:04.831Z,16.26
2022-10-11T13:37:17.221Z,16.07
2022-10-11T13:39:31.108Z,16.24
2022-10-11T13:41:35.270Z,16.44
2022-10-11T13:43:38.645Z,16.22
2022-10-11T13:45:41.577Z,16.39
2022-10-11T13:47:44.837Z,14.77
2022-10-11T13:49:53.400Z,16.60
2022-10-11T13:52:01.243Z,16.62
2022-10-11T13:54:09.479Z,16.73
2022-10-11T13:56:20.572Z,17.06
2022-10-11T13:58:28.422Z,16.28
2022-10-11T14:00:34.902Z,16.90
2022-10-11T14:02:38.925Z,16.40
2022-10-11T14:04:42.175Z,16.86
2022-10-11T14:06:48.786Z,17.10
2022-10-11T14:08:55.274Z,16.74
2022-10-11T14:11:05.885Z,16.64
2022-10-11T14:13:25.312Z,17.02
2022-10-11T14:15:31.883Z,16.46
2022-10-11T14:17:40.795Z,16.67
2022-10-11T14:19:44.611Z,16.63
2022-10-11T14:21:52.480Z,16.67
2022-10-11T14:23:57.182Z,16.73
2022-10-11T14:26:01.336Z,16.55
2022-10-11T14:28:05.724Z,16.45
2022-10-11T14:30:30.175Z,16.93
2022-10-11T14:32:35.147Z,17.02
2022-10-11T14:34:38.117Z,17.00
2022-10-11T14:36:40.783Z,16.49
2022-10-11T14:38:43.475Z,15.99
2022-10-11T14:40:46.259Z,16.26
2022-10-11T14:42:50.330Z,16.10
2022-10-11T14:44:53.111Z,16.50
2022-10-11T14:46:55.851Z,16.68
2022-10-11T14:48:58.916Z,16.28
2022-10-11T14:51:03.898Z,16.37
2022-10-11T14:53:08.878Z,16.52
2022-10-11T14:55:11.622Z,16.36
2022-10-11T14:57:14.447Z,15.78
2022-10-11T14:59:20.926Z,16.32
2022-10-11T15:01:23.855Z,16.32
2022-10-11T15:03:26.721Z,15.85
2022-10-11T15:05:33.914Z,16.01
2022-10-11T15:07:37.148Z,16.37
2022-10-11T15:09:39.893Z,16.56
2022-10-11T15:11:42.670Z,16.11
2022-10-11T15:13:45.972Z,16.64
2022-10-11T15:15:50.558Z,16.85
2022-10-11T15:17:55.119Z,16.77
2022-10-11T15:19:58.009Z,16.68
2022-10-11T15:22:02.319Z,16.53
2022-10-11T15:24:05.158Z,16.78
2022-10-11T15:26:08.381Z,16.38
2022-10-11T15:28:19.707Z,16.72
2022-10-11T15:30:24.681Z,16.86
2022-10-11T15:32:28.610Z,17.08
2022-10-11T15:34:31.249Z,17.13
2022-10-11T15:36:33.894Z,17.42
2022-10-11T15:38:36.543Z,17.37
2022-10-11T15:40:39.258Z,16.59
2022-10-11T15:42:42.589Z,14.59
2022-10-11T15:44:45.336Z,14.32
2022-10-11T15:46:47.996Z,16.28
2022-10-11T15:48:52.617Z,16.41
2022-10-11T15:50:55.855Z,16.48
2022-10-11T15:52:58.509Z,16.47
2022-10-11T15:55:01.164Z,16.62
2022-10-11T15:57:03.939Z,16.38
2022-10-11T15:59:06.618Z,16.25
2022-10-11T16:01:12.789Z,16.39
2022-10-11T16:03:16.803Z,17.17
2022-10-11T16:05:21.855Z,16.69
2022-10-11T16:07:24.609Z,16.51
2022-10-11T16:09:27.276Z,16.45
2022-10-11T16:11:30.047Z,15.88
2022-10-11T16:13:33.363Z,16.17
2022-10-11T16:15:37.776Z,15.81
2022-10-11T16:17:40.637Z,15.66
2022-10-11T16:19:43.437Z,15.75
2022-10-11T16:21:47.424Z,14.95
2022-10-11T16:23:50.091Z,14.75
2022-10-11T16:26:00.035Z,15.26
2022-10-11T16:28:03.663Z,15.26
2022-10-11T16:30:07.221Z,14.74
2022-10-11T16:32:10.079Z,14.41
2022-10-11T16:34:12.787Z,14.76
2022-10-11T16:36:40.557Z,14.67
2022-10-11T16:38:45.104Z,15.19
2022-10-11T16:40:47.848Z,15.21
2022-10-11T16:42:50.719Z,15.11
2022-10-11T16:44:53.731Z,15.05
2022-10-11T16:46:56.642Z,15.15
2022-10-11T16:48:59.725Z,14.98
2022-10-11T16:51:09.669Z,14.96
2022-10-11T16:53:15.443Z,14.75
2022-10-11T16:55:19.902Z,14.71
2022-10-11T16:57:23.174Z,14.61
2022-10-11T16:59:25.901Z,14.39
2022-10-11T17:01:29.662Z,14.57
2022-10-11T17:03:32.413Z,14.86
2022-10-11T17:05:36.960Z,13.28
2022-10-11T17:07:39.623Z,13.30
2022-10-11T17:09:44.287Z,13.05
2022-10-11T17:11:48.557Z,13.72
2022-10-11T17:13:53.574Z,13.24
2022-10-11T17:15:56.595Z,14.33
2022-10-11T17:17:59.281Z,14.53
2022-10-11T17:20:03.564Z,14.61
2022-10-11T17:22:06.272Z,14.71
2022-10-11T17:24:10.084Z,14.70
2022-10-11T17:26:18.106Z,14.57
2022-10-11T17:28:22.657Z,14.49
2022-10-11T17:30:26.035Z,14.46
2022-10-11T17:32:28.708Z,13.16
2022-10-11T17:34:32.563Z,14.36
2022-10-11T17:36:35.322Z,14.43
2022-10-11T17:38:38.014Z,14.30
2022-10-11T17:40:40.712Z,14.28
2022-10-11T17:42:43.378Z,14.04
2022-10-11T17:44:47.454Z,14.03
2022-10-11T17:46:50.174Z,14.16
2022-10-11T17:48:54.890Z,12.72
2022-10-11T17:50:57.619Z,14.27
2022-10-11T17:53:00.498Z,14.07
2022-10-11T17:55:03.540Z,13.84
2022-10-11T17:57:06.201Z,13.84
2022-10-11T17:59:15.269Z,14.00
2022-10-11T18:01:20.966Z,14.00
2022-10-11T18:03:23.666Z,14.16
2022-10-11T18:05:26.335Z,14.16
2022-10-11T18:07:29.009Z,14.02
2022-10-11T18:09:32.531Z,14.02
2022-10-11T18:11:35.700Z,13.82
2022-10-11T18:13:41.858Z,13.80
2022-10-11T18:15:44.577Z,13.79
2022-10-11T18:17:48.626Z,7.83
2022-10-11T18:19:51.293Z,13.55
2022-10-11T18:21:54.041Z,13.56
2022-10-11T18:23:59.629Z,13.17
2022-10-11T18:26:09.953Z,13.68
2022-10-11T18:28:13.261Z,11.96
2022-10-11T18:30:16.194Z,13.73
2022-10-11T18:32:18.911Z,13.87
2022-10-11T18:34:22.921Z,13.70
2022-10-11T18:36:27.419Z,13.58
2022-10-11T18:38:30.078Z,13.06
2022-10-11T18:40:33.206Z,13.78
2022-10-11T18:42:35.883Z,13.75
2022-10-11T18:44:39.185Z,13.70
2022-10-11T18:46:42.469Z,12.68
2022-10-11T18:48:47.288Z,13.52
2022-10-11T18:50:51.336Z,13.10
2022-10-11T18:52:54.118Z,13.58
2022-10-11T18:54:57.923Z,13.37
2022-10-11T18:57:00.685Z,11.26
2022-10-11T18:59:04.252Z,13.10
2022-10-11T19:01:08.258Z,13.30
2022-10-11T19:03:12.144Z,13.54
2022-10-11T19:05:15.218Z,13.43
2022-10-11T19:07:19.319Z,13.48
2022-10-11T19:09:25.700Z,12.77
2022-10-11T19:11:29.522Z,13.55
2022-10-11T19:13:32.367Z,13.33
2022-10-11T19:15:37.407Z,13.53
2022-10-11T19:17:40.108Z,13.51
2022-10-11T19:19:42.877Z,13.26
2022-10-11T19:21:48.525Z,13.05
2022-10-11T19:23:52.697Z,13.59
2022-10-11T19:25:57.703Z,13.46
2022-10-11T19:28:00.437Z,13.50
2022-10-11T19:30:03.129Z,12.52
2022-10-11T19:32:06.284Z,13.40
2022-10-11T19:34:10.173Z,13.54
2022-10-11T19:36:14.683Z,13.19
2022-10-11T19:38:17.459Z,13.59
2022-10-11T19:40:21.661Z,13.56
2022-10-11T19:42:24.414Z,13.40
2022-10-11T19:44:27.420Z,13.57
2022-10-11T19:48:53.360Z,13.49
2022-10-11T19:51:02.802Z,13.40
2022-10-11T19:53:05.663Z,12.42
2022-10-11T19:55:09.012Z,12.89
2022-10-11T19:57:12.959Z,13.44
2022-10-11T19:59:16.038Z,13.41
2022-10-11T20:01:20.834Z,12.34
2022-10-11T20:03:23.585Z,13.66
2022-10-11T20:05:26.232Z,13.51
2022-10-11T20:07:29.084Z,13.49
2022-10-11T20:09:31.896Z,13.67
2022-10-11T20:11:34.577Z,13.79
2022-10-11T20:13:40.239Z,13.57
2022-10-11T20:15:42.963Z,13.84
2022-10-11T20:17:51.732Z,13.27
2022-10-11T20:19:54.454Z,13.74
2022-10-11T20:21:57.158Z,13.57
2022-10-11T20:24:02.078Z,13.83
2022-10-11T20:26:06.862Z,13.55
2022-10-11T20:28:09.612Z,14.04
2022-10-11T20:30:14.734Z,14.14
2022-10-11T20:32:17.411Z,13.73
2022-10-11T20:34:20.071Z,14.05
2022-10-11T20:36:24.298Z,13.73
2022-10-11T20:38:27.335Z,12.25
2022-10-11T20:40:30.043Z,13.69
2022-10-11T20:42:32.709Z,14.18
2022-10-11T20:44:35.406Z,14.17
2022-10-11T20:46:40.143Z,14.09
2022-10-11T20:48:43.559Z,13.95
2022-10-11T20:50:46.271Z,14.02
2022-10-11T20:52:48.915Z,12.03
2022-10-11T20:54:51.591Z,14.16
2022-10-11T20:56:54.261Z,14.03
2022-10-11T20:58:58.297Z,14.07
2022-10-11T21:01:01.020Z,14.03
2022-10-11T21:03:05.213Z,13.49
2022-10-11T21:05:09.059Z,12.78
2022-10-11T21:07:11.787Z,13.79
2022-10-11T21:09:16.678Z,13.00
2022-10-11T21:11:19.739Z,13.89
2022-10-11T21:13:23.313Z,13.70
2022-10-11T21:15:26.385Z,12.85
2022-10-11T21:17:29.028Z,13.73
2022-10-11T21:19:33.073Z,11.71
2022-10-11T21:21:35.734Z,13.73
2022-10-11T21:23:38.623Z,12.98
2022-10-11T21:25:41.802Z,13.67
2022-10-11T21:27:44.435Z,12.89
2022-10-11T21:29:47.133Z,13.41
2022-10-11T21:31:50.125Z,13.03
2022-10-11T21:33:52.977Z,13.67
2022-10-11T21:35:57.478Z,13.90
2022-10-11T21:38:01.558Z,13.93
2022-10-11T21:40:04.626Z,13.73
2022-10-11T21:42:07.288Z,13.19
2022-10-11T21:44:09.941Z,13.76
2022-10-11T21:46:13.692Z,13.15
2022-10-11T21:48:16.342Z,13.51
2022-10-11T21:50:19.008Z,13.52
2022-10-11T21:52:23.097Z,13.64
2022-10-11T21:54:26.056Z,12.53
2022-10-11T21:56:29.454Z,12.97
2022-10-11T21:58:32.237Z,13.80
2022-10-11T22:00:35.270Z,13.62
2022-10-11T22:02:38.028Z,13.72
2022-10-11T22:04:40.673Z,12.32
2022-10-11T22:06:43.335Z,13.67
2022-10-11T22:08:47.945Z,13.73
2022-10-11T22:10:55.289Z,12.30
2022-10-11T22:12:57.997Z,13.62
2022-10-11T22:15:00.732Z,12.66
2022-10-11T22:17:03.426Z,13.48
2022-10-11T22:19:06.107Z,13.70
2022-10-11T22:21:11.999Z,13.64
2022-10-11T22:23:14.687Z,13.77
2022-10-11T22:25:18.818Z,13.66
2022-10-11T22:27:21.463Z,13.75
2022-10-11T22:29:24.166Z,12.86
2022-10-11T22:31:26.935Z,12.54
2022-10-11T22:33:29.723Z,13.18
2022-10-11T22:35:33.687Z,13.53
2022-10-11T22:37:39.112Z,13.71
2022-10-11T22:39:41.809Z,13.82
2022-10-11T22:41:45.809Z,13.32
2022-10-11T22:43:48.590Z,13.79
2022-10-11T22:45:51.233Z,13.63
2022-10-11T22:47:53.909Z,13.67
2022-10-11T22:49:56.597Z,13.71
2022-10-11T22:51:59.257Z,13.73
2022-10-11T22:54:01.941Z,13.53
2022-10-11T22:56:04.770Z,13.43
2022-10-11T22:58:09.033Z,13.40
2022-10-11T23:00:12.610Z,13.22
2022-10-11T23:02:15.314Z,13.26
2022-10-11T23:04:18.291Z,13.44
2022-10-11T23:06:21.042Z,13.55
2022-10-11T23:08:23.783Z,13.56
2022-10-11T23:10:26.612Z,13.75
2022-10-11T23:12:29.282Z,12.35
2022-10-11T23:14:33.264Z,13.79
2022-10-11T23:16:35.972Z,13.67
2022-10-11T23:18:39.581Z,13.76
2022-10-11T23:20:42.243Z,13.76
2022-10-11T23:22:44.928Z,13.82
2022-10-11T23:24:47.652Z,13.52
2022-10-11T23:26:50.293Z,13.89
2022-10-11T23:28:55.986Z,13.50
2022-10-11T23:31:00.158Z,12.22
2022-10-11T23:33:02.840Z,13.93
2022-10-11T23:35:06.438Z,14.01
2022-10-11T23:37:09.103Z,13.84
2022-10-11T23:39:12.346Z,13.94
2022-10-11T23:41:15.009Z,14.04
2022-10-11T23:43:17.647Z,13.23
2022-10-11T23:45:20.310Z,13.85
2022-10-11T23:47:24.366Z,13.93
2022-10-11T23:49:27.017Z,13.93
2022-10-11T23:51:29.790Z,13.42
2022-10-11T23:53:32.467Z,11.08
2022-10-11T23:55:35.159Z,13.90
2022-10-11T23:57:38.100Z,13.86
2022-10-11T23:59:40.934Z,13.89
